Airfield :
LOGIN :

Register | Disclaimer

   EN    FR    IT 

 










Legend :    VFR   Marginal VFR   IFR   Intensive IFR   Very Intensive IFR
Visi :
Ceiling :
>= 8 km
>= 3000ft
5 to 8 km
1000 to 3000 ft
1500m to 5 km
500 to 1000 ft
800 to 1500m
200 to 500 ft
< 800m
< 200 ft
Symbols :   Thunderstorms  Fog  Heavy snow  Heavy precipitations  Wind > 20 kt
SIGMETs :     Misc.  Thunderstorms  Icing  Turbulence  Mountain Waves  Volcanic Ashes






- Airport Elevation : 375 ft
- IATA code : MST


EHBK - Maastricht Aachen

CURRENT METAR :
  • 121255Z AUTO 20017KT 170V230 9999 SCT021 06/01 Q0999 NOSIG

EXPIRED METARs :
  • 121225Z AUTO 20016KT 9999 BKN019 05/02 Q1000 NOSIG
  • 121155Z AUTO 20015KT 170V230 9999 NCD 05/02 Q1000 NOSIG
  • 121125Z AUTO 20015KT 170V240 9999 SCT016 05/02 Q1001 NOSIG
  • 121055Z AUTO 20016KT 9999 NCD 05/02 Q1001 NOSIG
  • 121025Z AUTO 20012KT 170V230 9999 FEW015 05/02 Q1002 NOSIG

TAF TAF EHBK
Valid from the 12 at 12:00 until the 13 at 18:00 UTC


121112Z 1212/1318 20012KT 9999 SCT020
BECMG 1217/1220 16017G27KT
TEMPO 1222/1307 6000 RA
BECMG 1301/1304 19011KT
BECMG 1307/1310 27017G27KT BKN006
TEMPO 1307/1318 6000 -RADZ
PROB30
TEMPO 1309/1315 3000 -DZRA BKN003
BECMG 1315/1318 24015G25KT BKN020



MET'MAP, your aeronautical weather chart ! - Copyright ORBIFLY December 2007 - Disclaimer

ORBIFLY MET'MAP TEAM :

Programming & Development : Alexandra Zaïnal
Concept & original design : Baudouin d'Aumeries
Assistance for programming : Marc-Olivier Méhu
Technical & hardware support : Manuel Goepfert

Contact : metmap@orbifly.com




SOURCES & CREDITS :

   NOAA